Terminal Aerodrome Forecast
Issued by NWS

Home | Current Version | Previous Version | Text Only | Print | Product List | Glossary On
Versions: 1 2 3 4 5 6 7 8 9 10 11 12 13 14 15 16 17 18 19
000
FTUS43 KJKL 271721
TAFSME
TAF
KSME 271721Z 2718/2818 25006KT P6SM SCT035 BKN150
     FM280000 24003KT 6SM -SHRA BR VCTS BKN035CB OVC100
     FM281000 24004KT 3SM -SHRA BR VCTS OVC020CB=

USA.gov is the U.S. government's official web portal to all federal, state and local government web resources and services.